createdAt,value
2022-10-24T00:02:49.761Z,5.70
2022-10-24T00:07:01.623Z,5.50
2022-10-24T00:11:14.655Z,5.50
2022-10-24T00:15:22.985Z,5.20
2022-10-24T00:19:31.611Z,6.00
2022-10-24T00:23:40.057Z,6.00
2022-10-24T00:27:47.624Z,5.80
2022-10-24T00:31:55.850Z,5.10
2022-10-24T00:36:03.464Z,5.30
2022-10-24T00:40:13.499Z,5.90
2022-10-24T00:44:24.388Z,5.60
2022-10-24T00:48:35.990Z,5.10
2022-10-24T00:52:47.505Z,5.30
2022-10-24T00:57:00.865Z,4.70
2022-10-24T01:01:09.631Z,4.40
2022-10-24T01:05:19.352Z,5.10
2022-10-24T01:09:50.896Z,5.60
2022-10-24T01:14:02.020Z,5.00
2022-10-24T01:18:14.270Z,4.80
2022-10-24T01:22:25.061Z,4.90
2022-10-24T01:26:47.256Z,4.00
2022-10-24T01:31:01.107Z,4.00
2022-10-24T01:35:16.974Z,5.30
2022-10-24T01:39:25.333Z,4.40
2022-10-24T01:43:36.394Z,4.80
2022-10-24T01:47:48.119Z,4.70
2022-10-24T01:51:58.592Z,4.20
2022-10-24T01:56:07.483Z,4.60
2022-10-24T02:00:22.687Z,4.70
2022-10-24T02:04:33.696Z,4.90
2022-10-24T02:08:46.151Z,4.80
2022-10-24T02:12:57.313Z,4.20
2022-10-24T02:17:05.673Z,4.20
2022-10-24T02:21:25.612Z,3.90
2022-10-24T02:25:38.196Z,4.20
2022-10-24T02:29:52.476Z,3.30
2022-10-24T02:34:00.805Z,2.90
2022-10-24T02:38:16.402Z,3.00
2022-10-24T02:42:25.748Z,2.70
2022-10-24T02:46:33.628Z,3.00
2022-10-24T02:50:43.262Z,3.10
2022-10-24T02:54:51.563Z,3.00
2022-10-24T02:58:59.668Z,3.20
2022-10-24T03:03:07.626Z,2.90
2022-10-24T03:07:15.161Z,2.90
2022-10-24T03:11:23.121Z,3.40
2022-10-24T03:15:30.923Z,2.80
2022-10-24T03:19:39.166Z,3.10
2022-10-24T03:23:47.240Z,3.50
2022-10-24T03:27:55.054Z,3.20
2022-10-24T03:32:03.065Z,3.40
2022-10-24T03:36:11.290Z,3.60
2022-10-24T03:40:18.926Z,3.70
2022-10-24T03:44:27.545Z,3.60
2022-10-24T03:48:35.391Z,3.80
2022-10-24T03:52:45.505Z,3.80
2022-10-24T03:56:53.675Z,4.00
2022-10-24T04:01:01.628Z,4.00
2022-10-24T04:05:11.133Z,4.00
2022-10-24T04:09:19.247Z,3.60
2022-10-24T04:13:27.664Z,3.80
2022-10-24T04:17:35.620Z,3.80
2022-10-24T04:21:44.096Z,3.60
2022-10-24T04:25:52.344Z,3.70
2022-10-24T04:30:00.197Z,3.20
2022-10-24T04:34:08.165Z,3.30
2022-10-24T04:38:15.764Z,3.20
2022-10-24T04:42:26.217Z,3.40
2022-10-24T04:46:34.500Z,3.50
2022-10-24T04:50:44.611Z,3.80
2022-10-24T04:54:52.300Z,3.30
2022-10-24T04:59:00.208Z,2.90
2022-10-24T05:03:07.910Z,3.50
2022-10-24T05:07:16.150Z,3.30
2022-10-24T05:11:24.144Z,3.20
2022-10-24T05:15:32.200Z,3.50
2022-10-24T05:19:40.247Z,3.20
2022-10-24T05:23:48.373Z,3.60
2022-10-24T05:27:57.119Z,3.10
2022-10-24T05:32:05.013Z,3.40
2022-10-24T05:36:13.760Z,3.40
2022-10-24T05:40:21.593Z,3.40
2022-10-24T05:44:29.457Z,3.30
2022-10-24T05:48:37.444Z,3.30
2022-10-24T05:52:47.114Z,3.70
2022-10-24T05:56:56.175Z,4.10
2022-10-24T06:01:05.053Z,4.10
2022-10-24T06:05:14.236Z,4.60
2022-10-24T06:09:22.555Z,3.40
2022-10-24T06:13:35.183Z,3.60
2022-10-24T06:17:44.862Z,3.40
2022-10-24T06:21:52.614Z,4.00
2022-10-24T06:26:01.381Z,4.20
2022-10-24T06:30:12.257Z,3.80
2022-10-24T06:38:33.944Z,4.20
2022-10-24T06:42:43.340Z,4.00
2022-10-24T06:46:51.080Z,4.30
2022-10-24T06:51:00.416Z,4.90
2022-10-24T06:55:09.770Z,4.80
2022-10-24T06:59:18.908Z,5.10
2022-10-24T07:03:27.886Z,4.80
2022-10-24T07:07:35.828Z,4.20
2022-10-24T07:11:43.378Z,4.40
2022-10-24T07:15:55.172Z,3.40
2022-10-24T07:20:04.382Z,3.90
2022-10-24T07:24:14.803Z,3.50
2022-10-24T07:28:23.610Z,4.00
2022-10-24T07:32:30.922Z,3.50
2022-10-24T07:36:41.543Z,3.30
2022-10-24T07:40:54.432Z,3.50
2022-10-24T07:45:02.819Z,3.10
2022-10-24T07:49:11.502Z,3.10
2022-10-24T07:53:19.375Z,2.80
2022-10-24T07:57:27.639Z,2.80
2022-10-24T08:01:35.798Z,2.80
2022-10-24T08:05:44.093Z,2.70
2022-10-24T08:09:52.353Z,2.40
2022-10-24T08:14:02.788Z,2.60
2022-10-24T08:18:10.813Z,3.00
2022-10-24T08:22:18.991Z,3.30
2022-10-24T08:26:28.390Z,3.30
2022-10-24T08:30:36.110Z,2.80
2022-10-24T08:34:44.039Z,3.00
2022-10-24T08:38:51.929Z,3.20
2022-10-24T08:42:59.451Z,3.00
2022-10-24T08:47:10.564Z,3.50
2022-10-24T08:51:31.055Z,3.30
2022-10-24T08:55:50.236Z,3.40
2022-10-24T09:00:01.379Z,3.20
2022-10-24T09:04:13.256Z,2.70
2022-10-24T09:08:26.415Z,2.90
2022-10-24T09:12:40.433Z,3.00
2022-10-24T09:16:50.132Z,2.70
2022-10-24T09:20:58.127Z,2.80
2022-10-24T09:25:08.244Z,2.70
2022-10-24T09:29:18.535Z,2.50
2022-10-24T09:33:30.521Z,2.50
2022-10-24T09:37:47.120Z,2.20
2022-10-24T09:41:55.640Z,2.60
2022-10-24T09:46:09.043Z,2.50
2022-10-24T09:50:24.799Z,3.00
2022-10-24T09:54:35.386Z,3.00
2022-10-24T09:58:43.969Z,2.50
2022-10-24T10:03:03.109Z,2.60
2022-10-24T10:07:14.627Z,2.70
2022-10-24T10:11:30.904Z,2.80
2022-10-24T10:15:41.460Z,3.00
2022-10-24T10:19:49.555Z,2.50
2022-10-24T10:24:02.417Z,2.40
2022-10-24T10:28:23.360Z,2.70
2022-10-24T10:32:35.004Z,3.10
2022-10-24T10:36:48.270Z,2.50
2022-10-24T10:41:00.849Z,2.00
2022-10-24T10:45:19.638Z,2.50
2022-10-24T10:49:31.631Z,2.00
2022-10-24T10:53:43.886Z,2.40
2022-10-24T10:57:55.484Z,2.20
2022-10-24T11:02:10.386Z,2.20
2022-10-24T11:06:28.564Z,2.40
2022-10-24T11:10:39.606Z,2.30
2022-10-24T11:14:50.140Z,2.40
2022-10-24T11:19:01.314Z,2.30
2022-10-24T11:23:15.599Z,2.40
2022-10-24T11:27:27.837Z,2.40
2022-10-24T11:31:38.850Z,2.60
2022-10-24T11:36:01.662Z,2.80
2022-10-24T11:40:14.790Z,3.10
2022-10-24T11:44:38.115Z,2.40
2022-10-24T11:53:06.584Z,2.90
2022-10-24T11:57:17.130Z,2.90
2022-10-24T12:01:50.469Z,3.10
2022-10-24T12:06:21.737Z,2.90
2022-10-24T12:10:42.212Z,2.80
2022-10-24T12:15:00.921Z,2.60
2022-10-24T12:19:12.276Z,2.90
2022-10-24T12:23:24.904Z,2.60
2022-10-24T12:27:36.307Z,2.90
2022-10-24T12:31:44.193Z,3.30
2022-10-24T12:35:56.689Z,2.80
2022-10-24T12:40:41.802Z,3.00
2022-10-24T12:44:51.443Z,2.90
2022-10-24T12:49:18.385Z,2.70
2022-10-24T12:53:43.972Z,2.70
2022-10-24T12:57:51.793Z,2.90
2022-10-24T13:02:22.547Z,3.10
2022-10-24T13:06:34.335Z,2.90
2022-10-24T13:10:47.676Z,2.90
2022-10-24T13:15:18.838Z,2.90
2022-10-24T13:19:27.341Z,3.10
2022-10-24T13:23:35.974Z,3.50
2022-10-24T13:27:43.973Z,3.70
2022-10-24T13:31:56.306Z,4.20
2022-10-24T13:36:16.398Z,4.00
2022-10-24T13:40:30.639Z,4.20
2022-10-24T13:44:46.263Z,4.20
2022-10-24T13:48:54.428Z,4.20
2022-10-24T13:53:04.894Z,3.00
2022-10-24T13:57:30.909Z,4.40
2022-10-24T14:05:51.701Z,4.40
2022-10-24T14:10:02.066Z,3.90
2022-10-24T14:14:23.939Z,4.30
2022-10-24T14:18:33.243Z,3.90
2022-10-24T14:22:42.853Z,3.80
2022-10-24T14:26:53.512Z,3.60
2022-10-24T14:31:03.119Z,3.40
2022-10-24T14:35:15.603Z,3.00
2022-10-24T14:39:25.201Z,3.30
2022-10-24T14:43:34.012Z,3.40
2022-10-24T14:47:46.041Z,3.60
2022-10-24T14:51:56.427Z,3.60
2022-10-24T14:56:04.106Z,3.10
2022-10-24T15:00:23.807Z,2.90
2022-10-24T15:04:40.400Z,6.40
2022-10-24T15:08:51.331Z,3.90
2022-10-24T15:13:05.051Z,4.10
2022-10-24T15:17:32.491Z,3.50
2022-10-24T15:21:44.863Z,4.10
2022-10-24T15:26:06.052Z,3.70
2022-10-24T15:30:17.609Z,4.60
2022-10-24T15:34:28.193Z,6.40
2022-10-24T15:38:40.486Z,6.80
2022-10-24T15:42:51.530Z,8.60
2022-10-24T15:46:59.753Z,4.20
2022-10-24T15:51:07.968Z,3.40
2022-10-24T15:55:20.004Z,3.80
2022-10-24T15:59:27.807Z,4.20
2022-10-24T16:03:37.480Z,9.10
2022-10-24T16:07:45.925Z,6.30
2022-10-24T16:11:54.812Z,6.40
2022-10-24T16:16:02.898Z,7.70
2022-10-24T16:20:12.151Z,7.70
2022-10-24T16:24:19.938Z,7.90
2022-10-24T16:28:29.228Z,7.20
2022-10-24T16:32:37.513Z,7.30
2022-10-24T16:36:45.914Z,5.90
2022-10-24T16:40:56.016Z,4.80
2022-10-24T16:45:05.578Z,5.40
2022-10-24T16:49:13.439Z,6.30
2022-10-24T16:53:21.895Z,5.90
2022-10-24T16:57:37.053Z,5.40
2022-10-24T17:01:45.179Z,4.80
2022-10-24T17:05:53.036Z,5.20
2022-10-24T17:10:01.225Z,5.70
2022-10-24T17:14:10.752Z,4.60
2022-10-24T17:18:20.400Z,4.70
2022-10-24T17:22:28.460Z,4.10
2022-10-24T17:27:00.885Z,4.00
2022-10-24T17:31:09.501Z,4.30
2022-10-24T17:35:20.849Z,4.50
2022-10-24T17:39:32.442Z,3.90
2022-10-24T17:43:41.989Z,4.60
2022-10-24T17:47:50.193Z,4.20
2022-10-24T17:51:58.338Z,7.80
2022-10-24T17:56:07.006Z,15.60
2022-10-24T18:00:16.936Z,13.60
2022-10-24T18:04:24.436Z,8.70
2022-10-24T18:08:32.776Z,6.40
2022-10-24T18:12:42.014Z,5.40
2022-10-24T18:16:50.187Z,5.20
2022-10-24T18:21:08.939Z,5.80
2022-10-24T18:25:21.774Z,5.60
2022-10-24T18:29:31.382Z,5.80
2022-10-24T18:33:42.213Z,5.70
2022-10-24T18:37:49.985Z,5.50
2022-10-24T18:42:03.040Z,5.80
2022-10-24T18:46:14.083Z,5.90
2022-10-24T18:50:24.223Z,4.00
2022-10-24T18:54:33.011Z,4.10
2022-10-24T18:58:41.685Z,4.20
2022-10-24T19:03:05.587Z,4.80
2022-10-24T19:07:13.662Z,6.60
2022-10-24T19:11:24.572Z,9.80
2022-10-24T19:15:33.211Z,8.10
2022-10-24T19:19:41.798Z,6.70
2022-10-24T19:23:49.609Z,7.00
2022-10-24T19:27:57.820Z,6.40
2022-10-24T19:32:09.878Z,5.40
2022-10-24T19:36:19.364Z,5.00
2022-10-24T19:40:27.777Z,6.30
2022-10-24T19:44:35.571Z,5.40
2022-10-24T19:48:45.767Z,6.40
2022-10-24T19:52:58.869Z,6.30
2022-10-24T19:57:09.847Z,7.40
2022-10-24T20:01:26.087Z,7.80
2022-10-24T20:05:36.551Z,8.00
2022-10-24T20:09:50.529Z,8.50
2022-10-24T20:13:58.768Z,7.40
2022-10-24T20:18:06.433Z,7.90
2022-10-24T20:22:14.449Z,7.00
2022-10-24T20:26:24.060Z,6.50
2022-10-24T20:30:32.416Z,6.80
2022-10-24T20:34:40.230Z,5.90
2022-10-24T20:38:56.704Z,6.10
2022-10-24T20:43:07.334Z,6.30
2022-10-24T20:47:15.185Z,5.80
2022-10-24T20:51:24.165Z,5.40
2022-10-24T20:55:43.860Z,5.00
2022-10-24T20:59:52.841Z,6.80
2022-10-24T21:04:01.532Z,3.80
2022-10-24T21:08:09.699Z,3.60
2022-10-24T21:12:17.615Z,3.70
2022-10-24T21:16:26.854Z,2.80
2022-10-24T21:20:35.014Z,3.50
2022-10-24T21:24:42.902Z,2.40
2022-10-24T21:28:54.016Z,2.40
2022-10-24T21:33:10.980Z,2.20
2022-10-24T21:37:18.660Z,2.30
2022-10-24T21:41:26.846Z,3.30
2022-10-24T21:45:35.625Z,2.90
2022-10-24T21:49:44.000Z,2.70
2022-10-24T21:53:53.242Z,3.00
2022-10-24T21:58:01.365Z,2.30
2022-10-24T22:02:09.977Z,2.20
2022-10-24T22:06:19.237Z,7.80
2022-10-24T22:10:27.052Z,4.40
2022-10-24T22:14:36.280Z,2.90
2022-10-24T22:18:45.094Z,2.70
2022-10-24T22:22:53.171Z,2.90
2022-10-24T22:27:00.857Z,3.00
2022-10-24T22:31:10.666Z,3.20
2022-10-24T22:35:20.719Z,2.80
2022-10-24T22:39:31.016Z,2.80
2022-10-24T22:43:40.062Z,2.90
2022-10-24T22:58:58.264Z,3.50
2022-10-24T23:03:14.137Z,3.60
2022-10-24T23:07:27.636Z,4.40
2022-10-24T23:11:37.278Z,3.50
2022-10-24T23:15:45.761Z,3.40
2022-10-24T23:19:55.638Z,3.40
2022-10-24T23:24:04.481Z,3.20
2022-10-24T23:28:19.843Z,3.30
2022-10-24T23:32:30.155Z,3.20
2022-10-24T23:36:38.929Z,3.00
2022-10-24T23:40:48.111Z,3.60
2022-10-24T23:44:56.804Z,3.40
2022-10-24T23:49:22.368Z,3.70
2022-10-24T23:53:36.515Z,3.70
2022-10-24T23:57:45.278Z,3.70
